createdAt,value
2018-08-06T00:00:12.328Z,60.11
2018-08-06T00:02:41.021Z,59.13
2018-08-06T00:05:09.655Z,58.73
2018-08-06T00:07:38.290Z,60.37
2018-08-06T00:10:10.183Z,58.66
2018-08-06T00:12:39.044Z,59.47
2018-08-06T00:15:09.157Z,58.95
2018-08-06T00:17:38.049Z,59.48
2018-08-06T00:20:07.772Z,59.37
2018-08-06T00:22:36.647Z,57.98
2018-08-06T00:25:06.205Z,59.87
2018-08-06T00:27:34.735Z,62.54
2018-08-06T00:30:03.422Z,63.37
2018-08-06T00:32:31.942Z,66.00
2018-08-06T00:35:00.690Z,66.90
2018-08-06T00:37:29.299Z,67.44
2018-08-06T00:39:57.894Z,66.78
2018-08-06T00:42:26.431Z,67.52
2018-08-06T00:44:55.123Z,66.96
2018-08-06T00:47:23.705Z,66.79
2018-08-06T00:49:52.330Z,67.01
2018-08-06T00:52:20.850Z,66.85
2018-08-06T00:54:52.424Z,66.92
2018-08-06T00:57:21.006Z,67.50
2018-08-06T00:59:49.530Z,66.77
2018-08-06T01:02:18.816Z,67.32
2018-08-06T01:04:47.346Z,67.21
2018-08-06T01:07:16.055Z,68.16
2018-08-06T01:09:44.819Z,68.11
2018-08-06T01:12:13.339Z,67.25
2018-08-06T01:14:42.074Z,67.79
2018-08-06T01:17:10.758Z,68.27
2018-08-06T01:19:39.324Z,68.38
2018-08-06T01:22:08.113Z,67.57
2018-08-06T01:24:36.648Z,68.49
2018-08-06T01:27:05.331Z,68.37
2018-08-06T01:29:33.969Z,68.41
2018-08-06T01:32:02.498Z,69.25
2018-08-06T01:34:31.135Z,68.44
2018-08-06T01:36:59.702Z,69.45
2018-08-06T01:39:29.064Z,68.58
2018-08-06T01:41:57.751Z,69.44
2018-08-06T01:44:27.459Z,68.86
2018-08-06T01:46:56.043Z,69.88
2018-08-06T01:49:24.834Z,69.49
2018-08-06T01:51:53.380Z,69.09
2018-08-06T01:54:22.099Z,68.98
2018-08-06T01:56:50.684Z,69.44
2018-08-06T01:59:19.468Z,69.47
2018-08-06T02:01:48.257Z,68.97
2018-08-06T02:04:16.871Z,69.12
2018-08-06T02:06:45.427Z,69.36
2018-08-06T02:09:14.061Z,70.07
2018-08-06T02:11:42.637Z,69.16
2018-08-06T02:14:11.214Z,69.07
2018-08-06T02:16:39.754Z,68.50
2018-08-06T02:19:08.397Z,68.82
2018-08-06T02:21:36.967Z,68.29
2018-08-06T02:24:05.667Z,68.14
2018-08-06T02:26:34.290Z,67.92
2018-08-06T02:29:02.903Z,67.50
2018-08-06T02:31:31.442Z,67.75
2018-08-06T02:33:59.990Z,67.60
2018-08-06T02:36:28.663Z,67.06
2018-08-06T02:38:57.204Z,67.69
2018-08-06T02:41:25.877Z,67.33
2018-08-06T02:43:54.472Z,67.22
2018-08-06T02:46:23.132Z,67.32
2018-08-06T02:48:51.843Z,66.97
2018-08-06T02:51:20.495Z,67.06
2018-08-06T02:53:49.317Z,66.85
2018-08-06T02:56:18.044Z,66.68
2018-08-06T02:58:46.686Z,66.05
2018-08-06T03:01:15.317Z,66.00
2018-08-06T03:03:43.994Z,66.29
2018-08-06T03:06:12.639Z,66.25
2018-08-06T03:08:41.163Z,65.82
2018-08-06T03:11:09.908Z,66.59
2018-08-06T03:13:38.551Z,66.38
2018-08-06T03:16:07.176Z,65.85
2018-08-06T03:18:35.862Z,65.89
2018-08-06T03:21:04.459Z,65.42
2018-08-06T03:23:32.980Z,65.01
2018-08-06T03:26:01.563Z,65.33
2018-08-06T03:28:30.811Z,64.86
2018-08-06T03:30:59.493Z,64.30
2018-08-06T03:33:28.232Z,64.21
2018-08-06T03:35:56.815Z,64.25
2018-08-06T03:38:25.405Z,63.79
2018-08-06T03:40:53.960Z,64.43
2018-08-06T03:43:22.667Z,63.95
2018-08-06T03:45:51.210Z,64.01
2018-08-06T03:48:19.776Z,63.81
2018-08-06T03:50:48.410Z,63.85
2018-08-06T03:53:17.045Z,63.97
2018-08-06T03:55:45.659Z,63.12
2018-08-06T03:58:14.365Z,63.19
2018-08-06T04:00:42.958Z,63.23
2018-08-06T04:03:11.585Z,63.12
2018-08-06T04:05:40.231Z,62.57
2018-08-06T04:08:08.803Z,62.30
2018-08-06T04:10:37.433Z,62.87
2018-08-06T04:13:06.117Z,62.54
2018-08-06T04:15:34.803Z,62.58
2018-08-06T04:18:03.349Z,62.94
2018-08-06T04:20:32.023Z,63.04
2018-08-06T04:23:00.626Z,63.55
2018-08-06T04:25:29.443Z,63.22
2018-08-06T04:27:58.131Z,63.94
2018-08-06T04:30:26.863Z,63.55
2018-08-06T04:32:55.579Z,63.60
2018-08-06T04:35:24.778Z,63.95
2018-08-06T04:37:53.298Z,63.75
2018-08-06T04:40:21.880Z,63.69
2018-08-06T04:42:50.658Z,64.42
2018-08-06T04:45:19.341Z,64.15
2018-08-06T04:47:48.122Z,63.96
2018-08-06T04:50:17.626Z,63.48
2018-08-06T04:52:46.954Z,63.67
2018-08-06T04:55:16.295Z,63.77
2018-08-06T04:57:44.904Z,63.55
2018-08-06T05:00:14.984Z,63.16
2018-08-06T05:02:44.228Z,62.94
2018-08-06T05:05:13.121Z,62.62
2018-08-06T05:07:41.846Z,62.39
2018-08-06T05:10:10.366Z,61.41
2018-08-06T05:12:39.074Z,60.18
2018-08-06T05:15:07.679Z,61.40
2018-08-06T05:17:36.337Z,59.71
2018-08-06T05:20:05.413Z,58.41
2018-08-06T05:22:33.935Z,58.45
2018-08-06T05:25:02.563Z,58.27
2018-08-06T05:27:31.182Z,57.93
2018-08-06T05:29:59.867Z,56.26
2018-08-06T05:32:29.046Z,57.11
2018-08-06T05:34:57.750Z,57.09
2018-08-06T05:37:26.437Z,58.16
2018-08-06T05:39:55.045Z,56.32
2018-08-06T05:42:23.662Z,56.47
2018-08-06T05:44:52.351Z,56.26
2018-08-06T05:47:21.026Z,56.39
2018-08-06T05:49:49.603Z,56.00
2018-08-06T05:52:18.344Z,55.47
2018-08-06T05:54:46.907Z,55.75
2018-08-06T05:57:15.562Z,55.22
2018-08-06T05:59:44.193Z,55.76
2018-08-06T06:02:12.981Z,55.61
2018-08-06T06:04:41.495Z,54.79
2018-08-06T06:07:10.513Z,54.22
2018-08-06T06:09:39.098Z,54.33
2018-08-06T06:12:07.886Z,53.09
2018-08-06T06:14:36.715Z,53.31
2018-08-06T06:17:05.362Z,54.20
2018-08-06T06:19:33.961Z,53.61
2018-08-06T06:22:02.567Z,53.76
2018-08-06T06:24:31.119Z,54.35
2018-08-06T06:27:00.910Z,52.85
2018-08-06T06:29:29.762Z,53.35
2018-08-06T06:31:58.268Z,53.65
2018-08-06T06:34:27.469Z,53.63
2018-08-06T06:36:56.183Z,53.23
2018-08-06T06:39:24.795Z,53.65
2018-08-06T06:41:53.489Z,53.46
2018-08-06T06:44:22.063Z,52.98
2018-08-06T06:46:50.590Z,51.08
2018-08-06T06:49:19.330Z,51.84
2018-08-06T06:51:47.915Z,51.41
2018-08-06T06:54:16.536Z,52.61
2018-08-06T06:56:45.182Z,52.54
2018-08-06T06:59:14.494Z,52.03
2018-08-06T07:01:43.168Z,52.32
2018-08-06T07:04:12.264Z,50.98
2018-08-06T07:06:41.155Z,51.65
2018-08-06T07:09:12.809Z,51.03
2018-08-06T07:11:41.779Z,53.39
2018-08-06T07:14:11.191Z,53.42
2018-08-06T07:16:39.871Z,54.44
2018-08-06T07:19:08.575Z,53.81
2018-08-06T07:21:37.771Z,54.13
2018-08-06T07:24:06.566Z,54.40
2018-08-06T07:26:36.842Z,54.76
2018-08-06T07:29:06.385Z,54.88
2018-08-06T07:31:35.362Z,54.67
2018-08-06T07:34:03.968Z,54.57
2018-08-06T07:36:32.602Z,54.63
2018-08-06T07:39:01.225Z,53.98
2018-08-06T07:41:30.654Z,53.61
2018-08-06T07:43:59.418Z,54.10
2018-08-06T07:46:28.312Z,54.54
2018-08-06T07:48:56.927Z,53.68
2018-08-06T07:51:25.576Z,53.51
2018-08-06T07:53:54.569Z,54.47
2018-08-06T07:56:27.631Z,53.66
2018-08-06T07:58:56.305Z,53.42
2018-08-06T08:01:24.939Z,54.10
2018-08-06T08:03:53.611Z,53.66
2018-08-06T08:06:22.252Z,54.33
2018-08-06T08:08:50.879Z,54.24
2018-08-06T08:11:20.285Z,53.10
2018-08-06T08:13:48.827Z,52.51
2018-08-06T08:16:18.110Z,52.64
2018-08-06T08:18:46.735Z,51.76
2018-08-06T08:21:16.046Z,51.40
2018-08-06T08:23:44.731Z,51.54
2018-08-06T08:26:13.365Z,51.36
2018-08-06T08:28:41.999Z,51.23
2018-08-06T08:31:10.767Z,49.97
2018-08-06T08:33:39.294Z,48.71
2018-08-06T08:36:07.900Z,49.97
2018-08-06T08:38:36.480Z,50.72
2018-08-06T08:41:06.349Z,49.64
2018-08-06T08:43:35.958Z,50.35
2018-08-06T08:46:04.845Z,51.54
2018-08-06T08:48:33.531Z,50.57
2018-08-06T08:51:02.117Z,50.49
2018-08-06T08:53:30.798Z,50.77
2018-08-06T08:55:59.470Z,49.67
2018-08-06T08:58:28.292Z,48.01
2018-08-06T09:00:56.900Z,47.63
2018-08-06T09:03:25.658Z,48.58
2018-08-06T09:05:54.497Z,49.47
2018-08-06T09:08:23.035Z,48.43
2018-08-06T09:10:51.595Z,49.59
2018-08-06T09:13:20.266Z,47.75
2018-08-06T09:15:49.018Z,47.57
2018-08-06T09:18:17.608Z,48.50
2018-08-06T09:20:48.107Z,48.78
2018-08-06T09:23:16.701Z,48.23
2018-08-06T09:25:45.345Z,47.47
2018-08-06T09:28:14.031Z,48.37
2018-08-06T09:30:42.651Z,46.97
2018-08-06T09:33:11.940Z,48.17
2018-08-06T09:35:41.053Z,48.49
2018-08-06T09:38:09.590Z,48.99
2018-08-06T09:40:38.288Z,49.93
2018-08-06T09:43:07.327Z,49.86
2018-08-06T09:45:35.982Z,50.90
2018-08-06T09:48:04.683Z,49.38
2018-08-06T09:50:33.325Z,50.12
2018-08-06T09:53:01.977Z,50.02
2018-08-06T09:55:31.309Z,50.01
2018-08-06T09:57:59.971Z,50.27
2018-08-06T10:00:34.030Z,49.88
2018-08-06T10:03:03.306Z,50.36
2018-08-06T10:05:31.936Z,49.67
2018-08-06T10:08:00.494Z,49.80
2018-08-06T10:10:29.261Z,49.37
2018-08-06T10:12:57.840Z,48.83
2018-08-06T10:15:26.633Z,46.39
2018-08-06T10:17:55.968Z,47.15
2018-08-06T10:20:25.690Z,48.37
2018-08-06T10:22:54.836Z,48.13
2018-08-06T10:25:23.531Z,47.95
2018-08-06T10:27:52.251Z,47.81
2018-08-06T10:30:22.170Z,47.96
2018-08-06T10:32:50.871Z,47.40
2018-08-06T10:35:20.251Z,48.05
2018-08-06T10:37:50.126Z,48.23
2018-08-06T10:40:22.129Z,48.24
2018-08-06T10:42:50.772Z,49.15
2018-08-06T10:45:23.139Z,49.06
2018-08-06T10:47:52.236Z,49.15
2018-08-06T10:50:22.435Z,49.43
2018-08-06T10:52:51.104Z,49.61
2018-08-06T10:55:19.723Z,50.36
2018-08-06T10:57:48.351Z,51.18
2018-08-06T11:00:21.909Z,50.74
2018-08-06T11:02:51.008Z,51.36
2018-08-06T11:05:20.351Z,51.63
2018-08-06T11:07:48.999Z,52.43
2018-08-06T11:10:22.077Z,53.39
2018-08-06T11:12:50.817Z,54.04
2018-08-06T11:15:21.780Z,54.50
2018-08-06T11:17:50.695Z,54.80
2018-08-06T11:20:19.962Z,57.33
2018-08-06T11:22:49.339Z,56.66
2018-08-06T11:25:19.867Z,56.83
2018-08-06T11:27:48.862Z,57.48
2018-08-06T11:30:22.360Z,58.89
2018-08-06T11:32:51.611Z,60.46
2018-08-06T11:35:20.443Z,59.54
2018-08-06T11:37:48.996Z,59.16
2018-08-06T11:40:18.382Z,59.21
2018-08-06T11:42:47.941Z,59.44
2018-08-06T11:45:20.975Z,61.20
2018-08-06T11:47:49.613Z,60.63
2018-08-06T11:50:18.307Z,61.48
2018-08-06T11:52:47.099Z,60.37
2018-08-06T11:55:15.663Z,62.59
2018-08-06T11:57:44.241Z,61.73
2018-08-06T12:00:17.062Z,62.47
2018-08-06T12:02:45.708Z,62.46
2018-08-06T12:05:14.453Z,62.05
2018-08-06T12:07:43.102Z,64.16
2018-08-06T12:10:14.590Z,64.04
2018-08-06T12:12:44.244Z,63.05
2018-08-06T12:15:12.846Z,62.59
2018-08-06T12:17:42.157Z,63.88
2018-08-06T12:20:14.597Z,63.91
2018-08-06T12:22:44.518Z,64.06
2018-08-06T12:25:13.926Z,64.60
2018-08-06T12:27:43.110Z,65.70
2018-08-06T12:30:14.692Z,64.99
2018-08-06T12:32:44.067Z,65.02
2018-08-06T12:35:12.907Z,65.46
2018-08-06T12:37:41.850Z,67.45
2018-08-06T12:40:14.587Z,67.40
2018-08-06T12:42:43.571Z,67.31
2018-08-06T12:45:13.343Z,67.60
2018-08-06T12:47:42.331Z,69.04
2018-08-06T12:50:12.767Z,68.85
2018-08-06T12:52:42.259Z,67.92
2018-08-06T12:55:13.146Z,68.27
2018-08-06T12:57:42.556Z,68.34
2018-08-06T13:00:16.518Z,68.94
2018-08-06T13:02:45.710Z,69.09
2018-08-06T13:05:14.438Z,68.70
2018-08-06T13:07:43.785Z,69.68
2018-08-06T13:10:12.676Z,70.51
2018-08-06T13:12:41.363Z,69.72
2018-08-06T13:15:11.894Z,71.36
2018-08-06T13:17:41.083Z,71.22
2018-08-06T13:20:10.179Z,70.93
2018-08-06T13:22:38.922Z,73.22
2018-08-06T13:25:09.159Z,71.69
2018-08-06T13:27:39.613Z,72.82
2018-08-06T13:30:10.267Z,72.50
2018-08-06T13:32:38.888Z,73.02
2018-08-06T13:35:07.543Z,72.86
2018-08-06T13:37:36.906Z,73.90
2018-08-06T13:40:06.803Z,73.84
2018-08-06T13:42:35.469Z,75.24
2018-08-06T13:45:05.119Z,74.36
2018-08-06T13:47:33.918Z,74.44
2018-08-06T13:50:02.591Z,74.92
2018-08-06T13:52:31.216Z,75.59
2018-08-06T13:54:59.918Z,75.23
2018-08-06T13:57:29.275Z,75.81
2018-08-06T13:59:58.608Z,76.91
2018-08-06T14:02:28.088Z,76.17
2018-08-06T14:04:56.711Z,76.67
2018-08-06T14:07:26.063Z,77.32
2018-08-06T14:09:54.696Z,78.00
2018-08-06T14:12:23.198Z,78.18
2018-08-06T14:14:51.757Z,78.71
2018-08-06T14:17:20.579Z,78.60
2018-08-06T14:19:49.229Z,78.24
2018-08-06T14:22:17.887Z,78.09
2018-08-06T14:24:46.504Z,77.88
2018-08-06T14:27:15.086Z,78.11
2018-08-06T14:29:43.664Z,77.83
2018-08-06T14:32:12.349Z,78.56
2018-08-06T14:34:41.085Z,78.83
2018-08-06T14:37:09.975Z,79.18
2018-08-06T14:39:38.716Z,78.98
2018-08-06T14:42:07.573Z,79.87
2018-08-06T14:44:36.290Z,78.47
2018-08-06T14:47:04.868Z,80.07
2018-08-06T14:49:34.098Z,80.50
2018-08-06T14:52:02.895Z,77.94
2018-08-06T14:54:31.490Z,78.01
2018-08-06T14:57:00.772Z,78.48
2018-08-06T14:59:29.385Z,78.52
2018-08-06T15:01:58.363Z,78.54
2018-08-06T15:04:26.998Z,77.31
2018-08-06T15:06:55.682Z,78.33
2018-08-06T15:09:24.338Z,76.78
2018-08-06T15:11:53.392Z,77.32
2018-08-06T15:14:21.993Z,77.14
2018-08-06T15:16:51.345Z,77.60
2018-08-06T15:19:19.867Z,76.73
2018-08-06T15:21:48.463Z,77.50
2018-08-06T15:24:17.046Z,77.04
2018-08-06T15:26:45.676Z,76.07
2018-08-06T15:29:14.306Z,78.15
2018-08-06T15:31:42.887Z,78.01
2018-08-06T15:34:11.529Z,76.76
2018-08-06T15:36:40.215Z,77.39
2018-08-06T15:39:12.599Z,78.09
2018-08-06T15:41:41.202Z,77.53
2018-08-06T15:44:10.263Z,78.08
2018-08-06T15:46:38.782Z,78.03
2018-08-06T15:49:07.353Z,77.82
2018-08-06T15:51:36.230Z,77.90
2018-08-06T15:54:04.885Z,77.36
2018-08-06T15:56:33.447Z,77.47
2018-08-06T15:59:02.769Z,78.09
2018-08-06T16:01:31.778Z,77.69
2018-08-06T16:04:00.377Z,77.90
2018-08-06T16:06:29.045Z,78.59
2018-08-06T16:08:57.658Z,78.92
2018-08-06T16:11:27.668Z,79.16
2018-08-06T16:13:56.214Z,79.28
2018-08-06T16:16:24.732Z,79.96
2018-08-06T16:18:53.542Z,79.16
2018-08-06T16:21:22.079Z,80.87
2018-08-06T16:23:51.480Z,79.92
2018-08-06T16:26:20.171Z,80.01
2018-08-06T16:28:48.770Z,79.83
2018-08-06T16:31:17.434Z,79.64
2018-08-06T16:33:46.123Z,79.91
2018-08-06T16:36:14.734Z,81.38
2018-08-06T16:38:44.107Z,80.61
2018-08-06T16:41:13.454Z,80.54
2018-08-06T16:43:42.088Z,79.72
2018-08-06T16:46:10.779Z,80.29
2018-08-06T16:48:39.380Z,80.30
2018-08-06T16:51:08.146Z,80.70
2018-08-06T16:53:36.833Z,81.21
2018-08-06T16:56:05.462Z,81.26
2018-08-06T16:58:34.055Z,80.51
2018-08-06T17:01:02.815Z,80.73
2018-08-06T17:03:31.515Z,82.11
2018-08-06T17:06:00.203Z,81.09
2018-08-06T17:08:28.802Z,80.49
2018-08-06T17:10:58.139Z,81.34
2018-08-06T17:13:27.540Z,82.33
2018-08-06T17:15:56.226Z,81.38
2018-08-06T17:18:24.847Z,80.92
2018-08-06T17:20:54.167Z,81.12
2018-08-06T17:23:22.878Z,82.12
2018-08-06T17:25:51.442Z,82.07
2018-08-06T17:28:19.995Z,81.90
2018-08-06T17:30:48.645Z,81.30
2018-08-06T17:33:17.213Z,80.73
2018-08-06T17:35:45.810Z,81.76
2018-08-06T17:38:15.590Z,81.88
2018-08-06T17:40:44.165Z,81.78
2018-08-06T17:43:12.871Z,81.94
2018-08-06T17:45:43.780Z,81.33
2018-08-06T17:48:12.473Z,81.07
2018-08-06T17:50:41.142Z,81.93
2018-08-06T17:53:10.519Z,82.40
2018-08-06T17:55:39.437Z,82.63
2018-08-06T17:58:08.073Z,82.56
2018-08-06T18:00:36.655Z,83.50
2018-08-06T18:03:05.790Z,83.12
2018-08-06T18:05:34.436Z,83.02
2018-08-06T18:08:03.231Z,84.03
2018-08-06T18:10:31.853Z,84.52
2018-08-06T18:13:01.356Z,83.61
2018-08-06T18:15:31.428Z,84.20
2018-08-06T18:18:00.131Z,84.59
2018-08-06T18:20:28.760Z,83.44
2018-08-06T18:22:57.343Z,83.42
2018-08-06T18:25:26.054Z,83.55
2018-08-06T18:27:54.755Z,84.05
2018-08-06T18:30:23.863Z,83.69
2018-08-06T18:32:52.685Z,83.74
2018-08-06T18:35:21.279Z,84.57
2018-08-06T18:37:50.628Z,84.40
2018-08-06T18:40:20.490Z,83.39
2018-08-06T18:42:49.175Z,83.82
2018-08-06T18:45:19.136Z,83.67
2018-08-06T18:47:49.395Z,83.32
2018-08-06T18:50:18.692Z,84.21
2018-08-06T18:52:48.061Z,82.97
2018-08-06T18:55:17.074Z,83.54
2018-08-06T18:57:46.949Z,83.51
2018-08-06T19:00:18.051Z,84.12
2018-08-06T19:02:46.995Z,83.39
2018-08-06T19:05:15.611Z,83.27
2018-08-06T19:07:44.268Z,84.46
2018-08-06T19:10:13.202Z,84.26
2018-08-06T19:12:47.599Z,83.77
2018-08-06T19:15:16.264Z,84.52
2018-08-06T19:17:50.066Z,84.04
2018-08-06T19:20:19.729Z,84.16
2018-08-06T19:22:49.895Z,84.75
2018-08-06T19:25:23.805Z,84.61
2018-08-06T19:27:52.488Z,84.24
2018-08-06T19:30:21.292Z,84.29
2018-08-06T19:32:50.450Z,84.21
2018-08-06T19:35:19.255Z,86.09
2018-08-06T19:37:49.127Z,86.11
2018-08-06T19:40:17.757Z,86.63
2018-08-06T19:42:51.587Z,87.74
2018-08-06T19:45:20.288Z,87.11
2018-08-06T19:47:48.914Z,87.15
2018-08-06T19:50:22.798Z,86.94
2018-08-06T19:52:52.191Z,86.79
2018-08-06T19:55:26.173Z,86.58
2018-08-06T19:57:55.782Z,86.51
2018-08-06T20:00:24.463Z,86.55
2018-08-06T20:02:53.057Z,86.92
2018-08-06T20:05:22.327Z,87.13
2018-08-06T20:07:51.023Z,85.81
2018-08-06T20:10:19.595Z,86.75
2018-08-06T20:12:48.281Z,85.60
2018-08-06T20:15:18.634Z,85.61
2018-08-06T20:17:48.012Z,85.90
2018-08-06T20:20:17.267Z,85.66
2018-08-06T20:22:46.297Z,85.18
2018-08-06T20:25:20.107Z,83.53
2018-08-06T20:27:49.565Z,82.37
2018-08-06T20:30:21.080Z,81.53
2018-08-06T20:32:50.136Z,81.85
2018-08-06T20:35:19.316Z,81.54
2018-08-06T20:37:47.935Z,81.45
2018-08-06T20:40:16.566Z,81.56
2018-08-06T20:42:46.086Z,81.78
2018-08-06T20:45:17.748Z,81.15
2018-08-06T20:47:47.626Z,80.97
2018-08-06T20:50:18.566Z,81.19
2018-08-06T20:52:48.096Z,81.15
2018-08-06T20:55:17.611Z,81.21
2018-08-06T20:57:46.839Z,81.60
2018-08-06T21:00:18.794Z,81.68
2018-08-06T21:02:48.457Z,81.89
2018-08-06T21:05:17.350Z,81.42
2018-08-06T21:07:45.979Z,81.66
2018-08-06T21:10:15.704Z,81.44
2018-08-06T21:12:44.683Z,81.46
2018-08-06T21:15:14.357Z,81.58
2018-08-06T21:17:43.459Z,82.37
2018-08-06T21:20:14.243Z,82.23
2018-08-06T21:22:44.286Z,82.64
2018-08-06T21:25:13.267Z,82.45
2018-08-06T21:27:43.233Z,82.43
2018-08-06T21:30:15.943Z,82.73
2018-08-06T21:32:48.565Z,82.10
2018-08-06T21:35:17.907Z,82.90
2018-08-06T21:37:47.685Z,82.58
2018-08-06T21:42:51.103Z,82.79
2018-08-06T21:45:20.682Z,82.91
2018-08-06T21:47:49.858Z,83.32
2018-08-06T21:50:18.614Z,83.61
2018-08-06T21:52:47.252Z,83.32
2018-08-06T21:55:16.970Z,83.43
2018-08-06T21:57:45.655Z,83.24
2018-08-06T22:00:24.045Z,83.81
2018-08-06T22:02:52.555Z,84.37
2018-08-06T22:05:21.127Z,84.72
2018-08-06T22:07:49.691Z,84.34
2018-08-06T22:10:18.250Z,84.51
2018-08-06T22:12:46.925Z,84.29
2018-08-06T22:15:15.588Z,84.20
2018-08-06T22:17:44.275Z,84.25
2018-08-06T22:20:12.927Z,85.14
2018-08-06T22:22:41.631Z,84.14
2018-08-06T22:25:10.166Z,84.26
2018-08-06T22:27:38.872Z,84.86
2018-08-06T22:30:08.694Z,85.43
2018-08-06T22:32:37.385Z,85.51
2018-08-06T22:35:08.639Z,85.73
2018-08-06T22:37:37.730Z,86.64
2018-08-06T22:40:08.103Z,85.79
2018-08-06T22:42:37.089Z,85.66
2018-08-06T22:45:06.820Z,85.96
2018-08-06T22:47:36.150Z,85.68
2018-08-06T22:50:06.212Z,86.43
2018-08-06T22:52:34.954Z,86.11
2018-08-06T22:55:03.686Z,86.69
2018-08-06T22:57:32.186Z,86.33
2018-08-06T23:00:01.011Z,86.58
2018-08-06T23:02:29.798Z,86.38
2018-08-06T23:04:59.296Z,86.09
2018-08-06T23:07:27.870Z,85.85
2018-08-06T23:09:56.524Z,86.23
2018-08-06T23:12:25.097Z,86.27
2018-08-06T23:14:53.730Z,86.75
2018-08-06T23:17:22.419Z,86.32
2018-08-06T23:19:50.950Z,85.82
2018-08-06T23:22:19.633Z,86.17
2018-08-06T23:24:48.203Z,86.75
2018-08-06T23:27:16.778Z,86.56
2018-08-06T23:29:45.819Z,86.73
2018-08-06T23:32:14.518Z,86.31
2018-08-06T23:34:43.162Z,86.00
2018-08-06T23:37:12.058Z,85.74
2018-08-06T23:39:40.903Z,86.27
2018-08-06T23:42:09.628Z,86.15
2018-08-06T23:44:38.275Z,86.39
2018-08-06T23:47:06.815Z,86.02
2018-08-06T23:49:35.431Z,85.61
2018-08-06T23:52:04.119Z,85.69
2018-08-06T23:54:32.662Z,85.70
2018-08-06T23:57:01.306Z,86.49
2018-08-06T23:59:29.855Z,85.91
